Time;durP1;ratioP1;P1;durP2;ratioP2;P2;SDS_P1;SDS_P2;PMS_P1;PMS_P2;Temp;Humidity;BMP_temperature;BMP_pressure;BME280_temperature;BME280_humidity;BME280_pressure;Samples;Min_cycle;Max_cycle;Signal;HPM_P1;HPM_P2
2024/01/04 00:04:20;;;;;;;1.80;1.50;;;23.00;56.80;;;;;;221859;1267;22585;-47
2024/01/04 00:09:27;;;;;;;1.80;1.40;;;23.00;56.70;;;;;;221997;1263;24083;-47
2024/01/04 00:14:34;;;;;;;2.50;1.60;;;23.00;56.80;;;;;;222149;1267;24072;-49
2024/01/04 00:19:39;;;;;;;2.20;1.70;;;22.90;56.80;;;;;;222001;1268;22524;-47
2024/01/04 00:24:44;;;;;;;1.80;1.40;;;22.90;57.10;;;;;;222130;1269;22692;-48
2024/01/04 00:29:49;;;;;;;4.80;1.90;;;23.00;56.90;;;;;;221846;1268;22534;-49
2024/01/04 00:34:54;;;;;;;4.00;2.50;;;23.00;56.50;;;;;;222424;1259;25346;-48
2024/01/04 00:40:00;;;;;;;4.00;2.40;;;23.00;56.50;;;;;;222548;1263;23370;-48
2024/01/04 00:45:07;;;;;;;2.60;1.60;;;23.00;56.60;;;;;;222086;1268;22555;-51
2024/01/04 00:50:12;;;;;;;2.70;1.70;;;22.90;56.50;;;;;;221648;1262;22530;-49
2024/01/04 00:55:18;;;;;;;2.40;1.80;;;22.90;56.60;;;;;;222150;1269;22523;-51
2024/01/04 01:00:24;;;;;;;2.50;1.50;;;23.00;56.50;;;;;;221842;1264;25332;-50
2024/01/04 01:05:28;;;;;;;2.00;1.40;;;23.00;56.30;;;;;;221777;1256;22526;-49
2024/01/04 01:10:34;;;;;;;1.70;1.30;;;23.10;56.30;;;;;;221893;1265;24319;-50
2024/01/04 01:15:40;;;;;;;5.00;1.60;;;23.10;56.20;;;;;;222269;1257;24207;-49
2024/01/04 01:20:45;;;;;;;1.40;1.10;;;23.10;56.10;;;;;;221849;1268;25421;-49
2024/01/04 01:25:50;;;;;;;1.40;1.30;;;23.10;56.10;;;;;;221799;1254;22520;-46
2024/01/04 01:30:56;;;;;;;1.80;1.40;;;23.10;56.60;;;;;;221715;1268;22636;-50
2024/01/04 01:36:02;;;;;;;3.10;1.30;;;23.00;56.60;;;;;;221760;1265;24427;-48
2024/01/04 01:41:08;;;;;;;1.90;1.70;;;23.00;56.30;;;;;;222009;1262;23445;-48
2024/01/04 01:46:15;;;;;;;2.10;1.80;;;23.00;56.40;;;;;;221592;1265;25230;-47
2024/01/04 01:51:21;;;;;;;3.00;1.80;;;23.00;56.40;;;;;;221611;1256;24141;-48
2024/01/04 01:56:27;;;;;;;2.40;1.80;;;23.00;56.30;;;;;;222296;1265;22523;-50
2024/01/04 02:01:32;;;;;;;2.10;1.10;;;23.00;56.70;;;;;;224213;1267;22511;-50
2024/01/04 02:06:36;;;;;;;2.70;1.80;;;23.00;56.30;;;;;;221879;1267;22643;-51
2024/01/04 02:11:41;;;;;;;2.20;1.50;;;23.00;56.20;;;;;;221844;1269;22583;-47
2024/01/04 02:16:45;;;;;;;1.00;0.90;;;22.90;56.30;;;;;;221986;1266;22516;-50
2024/01/04 02:21:49;;;;;;;1.10;1.00;;;23.00;56.80;;;;;;222209;1262;24200;-50
2024/01/04 02:26:53;;;;;;;1.30;1.20;;;22.90;56.50;;;;;;222043;1269;24200;-50
2024/01/04 02:31:58;;;;;;;1.00;1.00;;;22.90;56.40;;;;;;222030;1266;22655;-50
2024/01/04 02:37:02;;;;;;;2.00;1.60;;;22.90;56.70;;;;;;221624;1269;24350;-49
2024/01/04 02:42:06;;;;;;;1.20;1.00;;;23.00;56.30;;;;;;222118;1263;25523;-49
2024/01/04 02:47:11;;;;;;;1.80;1.40;;;23.10;56.20;;;;;;221839;1265;22626;-51
2024/01/04 02:52:16;;;;;;;1.00;1.00;;;23.10;56.10;;;;;;222054;1268;25282;-49
2024/01/04 02:57:20;;;;;;;2.80;1.50;;;23.10;55.90;;;;;;222334;1250;25336;-48
2024/01/04 03:02:24;;;;;;;1.30;1.20;;;23.10;55.80;;;;;;221807;1260;24193;-48
2024/01/04 03:07:28;;;;;;;1.40;1.20;;;23.10;56.00;;;;;;221966;1267;22527;-47
2024/01/04 03:12:32;;;;;;;2.70;1.20;;;23.10;55.60;;;;;;222089;1264;24179;-48
2024/01/04 03:17:36;;;;;;;1.40;1.20;;;23.00;56.00;;;;;;223256;1263;23585;-50
2024/01/04 03:22:40;;;;;;;2.10;1.00;;;23.00;56.10;;;;;;225148;1269;24657;-49
2024/01/04 03:27:44;;;;;;;1.70;1.10;;;23.10;56.00;;;;;;222052;1268;24357;-48
2024/01/04 03:32:49;;;;;;;1.70;0.80;;;23.00;56.20;;;;;;221803;1264;22540;-50
2024/01/04 03:37:53;;;;;;;1.30;1.10;;;23.00;56.70;;;;;;221999;1262;25241;-48
2024/01/04 03:42:58;;;;;;;1.70;1.30;;;23.00;56.50;;;;;;222171;1266;25391;-48
2024/01/04 03:48:02;;;;;;;0.90;0.90;;;23.00;56.50;;;;;;224552;1268;24216;-46
2024/01/04 03:53:06;;;;;;;1.10;1.00;;;23.00;56.10;;;;;;222966;1268;22516;-47
2024/01/04 03:58:10;;;;;;;0.90;0.90;;;23.10;56.80;;;;;;225249;1268;24328;-51
2024/01/04 04:03:19;;;;;;;3.90;1.30;;;23.20;55.60;;;;;;221868;1267;25174;-49
2024/01/04 04:08:23;;;;;;;1.60;1.00;;;23.10;55.70;;;;;;222011;1268;24203;-49
2024/01/04 04:13:27;;;;;;;1.40;0.90;;;22.90;56.10;;;;;;222294;1266;25055;-47
2024/01/04 04:18:33;;;;;;;0.70;0.70;;;22.90;56.10;;;;;;221718;1269;22630;-48
2024/01/04 04:23:37;;;;;;;1.00;0.70;;;23.00;55.90;;;;;;221925;1262;22647;-49
2024/01/04 04:28:41;;;;;;;3.00;1.40;;;23.10;56.30;;;;;;221742;1268;25311;-50
2024/01/04 04:33:47;;;;;;;1.70;1.00;;;23.10;56.00;;;;;;221830;1255;24278;-47
2024/01/04 04:38:52;;;;;;;5.80;2.00;;;23.10;55.70;;;;;;221657;1267;24187;-48
2024/01/04 04:43:56;;;;;;;5.70;1.70;;;23.20;55.70;;;;;;222197;1263;22522;-49
2024/01/04 04:49:01;;;;;;;6.90;1.80;;;23.10;55.70;;;;;;221877;1268;24203;-48
2024/01/04 04:54:05;;;;;;;3.20;1.30;;;23.00;55.80;;;;;;222336;1268;24208;-47
2024/01/04 04:59:09;;;;;;;3.80;1.10;;;23.00;56.00;;;;;;222075;1268;22647;-48
2024/01/04 05:04:14;;;;;;;0.80;0.80;;;23.00;55.50;;;;;;223389;1268;22517;-50
2024/01/04 05:09:18;;;;;;;8.90;1.90;;;23.00;56.40;;;;;;222205;1267;24245;-51
2024/01/04 05:14:23;;;;;;;3.20;1.60;;;23.00;56.10;;;;;;222195;1265;24409;-51
2024/01/04 05:19:28;;;;;;;2.20;1.40;;;23.00;56.10;;;;;;222081;1267;24263;-49
2024/01/04 05:24:32;;;;;;;1.20;1.00;;;23.00;56.10;;;;;;222431;1265;24216;-48
2024/01/04 05:29:37;;;;;;;1.60;1.00;;;22.90;56.40;;;;;;222492;1268;25335;-50
2024/01/04 05:34:43;;;;;;;1.30;0.80;;;22.90;56.20;;;;;;222380;1267;24228;-48
2024/01/04 05:39:47;;;;;;;2.20;1.40;;;22.90;56.20;;;;;;222018;1262;22696;-51
2024/01/04 05:44:52;;;;;;;1.90;0.90;;;23.00;56.20;;;;;;221580;1267;369672;-50
2024/01/04 05:49:57;;;;;;;1.60;1.10;;;23.00;56.30;;;;;;222255;1266;24344;-48
2024/01/04 05:55:01;;;;;;;1.50;1.00;;;22.90;56.10;;;;;;222173;1267;24528;-47
2024/01/04 06:00:07;;;;;;;2.80;1.20;;;23.00;56.10;;;;;;222048;1268;24204;-49
2024/01/04 06:05:11;;;;;;;0.80;0.70;;;23.10;55.90;;;;;;222304;1259;25725;-47
2024/01/04 06:10:16;;;;;;;0.60;0.60;;;23.00;55.80;;;;;;221975;1261;23034;-49
2024/01/04 06:15:20;;;;;;;2.50;1.10;;;23.00;55.90;;;;;;222324;1268;24197;-47
2024/01/04 06:20:25;;;;;;;1.40;0.90;;;23.00;55.90;;;;;;225543;1267;25343;-46
2024/01/04 06:25:30;;;;;;;1.00;0.80;;;23.10;55.60;;;;;;228220;1268;24189;-49
2024/01/04 06:30:35;;;;;;;1.30;0.90;;;23.10;55.30;;;;;;224294;1268;23134;-46
2024/01/04 06:35:40;;;;;;;2.10;0.60;;;23.10;55.20;;;;;;221966;1269;25503;-46
2024/01/04 06:40:44;;;;;;;0.70;0.60;;;23.00;55.60;;;;;;223130;1263;25395;-49
2024/01/04 06:45:49;;;;;;;0.50;0.50;;;22.80;55.70;;;;;;229799;1269;22170;-48
2024/01/04 06:50:54;;;;;;;0.40;0.40;;;22.90;55.50;;;;;;229995;1259;22932;-51
2024/01/04 06:55:58;;;;;;;0.90;0.80;;;22.90;55.70;;;;;;224635;1268;22648;-48
2024/01/04 07:01:02;;;;;;;1.00;0.80;;;22.90;56.30;;;;;;221889;1263;22988;-51
2024/01/04 07:06:07;;;;;;;0.60;0.60;;;22.80;56.00;;;;;;222197;1245;23948;-48
2024/01/04 07:11:12;;;;;;;1.30;0.60;;;22.80;56.20;;;;;;221926;1268;22525;-50
2024/01/04 07:16:17;;;;;;;0.40;0.40;;;22.80;56.50;;;;;;222280;1268;22653;-48
2024/01/04 07:21:22;;;;;;;2.00;0.60;;;22.80;56.20;;;;;;222081;1268;24232;-50
2024/01/04 07:26:26;;;;;;;0.50;0.50;;;22.90;56.30;;;;;;222230;1266;24356;-49
2024/01/04 07:31:31;;;;;;;0.60;0.60;;;22.80;56.20;;;;;;221735;1262;24210;-48
2024/01/04 07:36:35;;;;;;;0.60;0.60;;;22.70;56.30;;;;;;221993;1266;24371;-47
2024/01/04 07:41:41;;;;;;;1.00;0.80;;;22.70;56.30;;;;;;221756;1265;22514;-51
2024/01/04 07:46:45;;;;;;;0.60;0.60;;;22.70;56.40;;;;;;221795;1262;22730;-46
2024/01/04 07:51:51;;;;;;;0.80;0.50;;;22.70;57.00;;;;;;221925;1262;24174;-47
2024/01/04 07:56:55;;;;;;;0.50;0.50;;;22.70;56.80;;;;;;221931;1268;24199;-47
2024/01/04 08:02:00;;;;;;;1.30;0.80;;;22.70;56.50;;;;;;221539;1264;24204;-50
2024/01/04 08:07:04;;;;;;;0.70;0.60;;;22.80;56.20;;;;;;222582;1262;24299;-49
2024/01/04 08:12:12;;;;;;;0.80;0.70;;;22.70;56.20;;;;;;222007;1265;22748;-48
2024/01/04 08:17:16;;;;;;;0.70;0.60;;;22.70;56.60;;;;;;221927;1265;22659;-48
2024/01/04 08:22:21;;;;;;;1.40;0.80;;;22.70;56.30;;;;;;222381;1265;24234;-47
2024/01/04 08:27:25;;;;;;;0.80;0.50;;;22.70;56.10;;;;;;221956;1268;24395;-49
2024/01/04 08:32:29;;;;;;;1.00;0.80;;;22.70;56.30;;;;;;224522;1268;25429;-47
2024/01/04 08:37:34;;;;;;;2.20;0.80;;;22.70;55.60;;;;;;221940;1263;22598;-50
2024/01/04 08:42:38;;;;;;;0.70;0.60;;;22.60;56.30;;;;;;221161;1271;25356;-47
2024/01/04 08:47:42;;;;;;;0.70;0.70;;;22.60;55.90;;;;;;221206;1272;25410;-49
2024/01/04 08:52:47;;;;;;;2.20;1.10;;;22.60;55.90;;;;;;221247;1252;22797;-53
2024/01/04 08:57:51;;;;;;;2.50;0.80;;;22.80;56.00;;;;;;221168;1270;22902;-49
2024/01/04 09:02:57;;;;;;;3.10;0.40;;;22.90;55.20;;;;;;221366;1268;22571;-50
2024/01/04 09:08:05;;;;;;;1.90;0.50;;;22.80;55.70;;;;;;221735;1266;24183;-50
2024/01/04 09:13:09;;;;;;;1.20;0.80;;;22.80;55.80;;;;;;223061;1268;22574;-47
2024/01/04 09:18:13;;;;;;;0.90;0.60;;;22.90;55.50;;;;;;221952;1268;25555;-50
2024/01/04 09:23:17;;;;;;;0.40;0.40;;;22.80;55.30;;;;;;222075;1262;22528;-49
2024/01/04 09:28:25;;;;;;;0.50;0.50;;;22.70;55.50;;;;;;221690;1269;24215;-52
2024/01/04 09:33:29;;;;;;;1.30;0.60;;;22.60;55.70;;;;;;221691;1268;24188;-51
2024/01/04 09:38:34;;;;;;;0.90;0.90;;;22.60;55.60;;;;;;222078;1259;22688;-47
2024/01/04 09:43:41;;;;;;;0.60;0.60;;;22.60;55.60;;;;;;221940;1268;22778;-47
2024/01/04 09:48:56;;;;;;;0.50;0.50;;;22.50;55.50;;;;;;222300;1268;22517;-48
2024/01/04 09:54:02;;;;;;;11.40;1.00;;;22.50;55.40;;;;;;222040;1268;22599;-51
2024/01/04 09:59:07;;;;;;;0.50;0.50;;;22.60;55.30;;;;;;222024;1263;22530;-50
2024/01/04 10:04:13;;;;;;;3.00;0.70;;;22.70;55.00;;;;;;221733;1269;22564;-49
2024/01/04 10:09:51;;;;;;;0.60;0.60;;;22.50;54.80;;;;;;221869;1263;26175;-51
2024/01/04 10:14:55;;;;;;;1.80;0.70;;;22.60;54.80;;;;;;222100;1265;25220;-49
2024/01/04 10:20:01;;;;;;;2.00;1.00;;;22.70;54.50;;;;;;221665;1269;22535;-49
2024/01/04 10:25:07;;;;;;;1.00;0.70;;;22.80;54.60;;;;;;221928;1268;24205;-48
2024/01/04 10:30:12;;;;;;;0.60;0.50;;;22.80;54.00;;;;;;222284;1268;24376;-53
2024/01/04 10:35:26;;;;;;;1.80;0.50;;;22.90;53.80;;;;;;221963;1269;22515;-49
2024/01/04 10:40:31;;;;;;;0.80;0.70;;;23.00;54.20;;;;;;222110;1268;24229;-49
2024/01/04 10:45:37;;;;;;;0.70;0.60;;;22.90;53.50;;;;;;221842;1268;24344;-50
2024/01/04 10:50:42;;;;;;;0.90;0.80;;;22.90;54.10;;;;;;222158;1269;24245;-50
2024/01/04 10:55:48;;;;;;;0.70;0.40;;;22.80;53.90;;;;;;222204;1269;24859;-48
2024/01/04 11:00:53;;;;;;;0.40;0.40;;;22.80;54.10;;;;;;221994;1268;22524;-48
2024/01/04 11:06:02;;;;;;;1.20;0.60;;;22.80;53.40;;;;;;222125;1269;24196;-52
2024/01/04 11:11:09;;;;;;;0.40;0.40;;;22.90;53.30;;;;;;222018;1269;25283;-50
2024/01/04 11:16:53;;;;;;;0.60;0.60;;;22.80;53.30;;;;;;221749;1269;22518;-52
2024/01/04 11:22:36;;;;;;;1.80;0.80;;;22.80;53.20;;;;;;222094;1269;25268;-46
2024/01/04 11:27:41;;;;;;;0.50;0.50;;;22.90;53.30;;;;;;221292;1271;24253;-49
2024/01/04 11:32:45;;;;;;;0.40;0.40;;;22.90;52.90;;;;;;221788;1271;22790;-48
2024/01/04 11:37:51;;;;;;;1.60;0.70;;;22.90;52.70;;;;;;221649;1270;24214;-48
2024/01/04 11:43:00;;;;;;;1.30;0.80;;;22.90;53.20;;;;;;222477;1268;24349;-49
2024/01/04 11:48:10;;;;;;;0.90;0.60;;;22.80;53.20;;;;;;221616;1271;25218;-51
2024/01/04 11:53:16;;;;;;;1.70;0.90;;;22.70;53.30;;;;;;221391;1270;22558;-49
2024/01/04 11:58:26;;;;;;;1.70;1.00;;;22.80;52.60;;;;;;221793;1268;23489;-51
2024/01/04 12:03:32;;;;;;;0.70;0.60;;;22.90;52.80;;;;;;222032;1268;23009;-51
2024/01/04 12:08:36;;;;;;;1.20;0.70;;;23.00;52.20;;;;;;221798;1268;22538;-48
2024/01/04 12:13:41;;;;;;;0.40;0.40;;;23.00;52.10;;;;;;221607;1269;24194;-51
2024/01/04 12:18:45;;;;;;;0.40;0.40;;;23.10;52.00;;;;;;222149;1266;24287;-48
2024/01/04 12:23:51;;;;;;;0.40;0.40;;;23.10;52.20;;;;;;221830;1263;22715;-49
2024/01/04 12:28:56;;;;;;;1.20;0.70;;;23.00;51.90;;;;;;222137;1269;22528;-50
2024/01/04 12:34:00;;;;;;;0.50;0.50;;;23.00;52.30;;;;;;221654;1269;24199;-51
2024/01/04 12:39:13;;;;;;;0.60;0.60;;;22.90;52.10;;;;;;222427;1268;22539;-49
2024/01/04 12:44:19;;;;;;;0.40;0.40;;;23.00;51.50;;;;;;221918;1268;22517;-48
2024/01/04 12:49:24;;;;;;;0.90;0.60;;;23.10;52.00;;;;;;222252;1262;22538;-50
2024/01/04 12:54:29;;;;;;;0.40;0.40;;;23.00;52.50;;;;;;221745;1269;24205;-46
2024/01/04 12:59:33;;;;;;;0.90;0.60;;;22.90;52.40;;;;;;221997;1257;22527;-50
2024/01/04 13:04:40;;;;;;;2.10;0.90;;;22.80;52.40;;;;;;222058;1260;22524;-52
2024/01/04 13:09:44;;;;;;;1.10;0.90;;;22.90;52.10;;;;;;222279;1266;23152;-49
2024/01/04 13:14:50;;;;;;;1.90;0.90;;;22.90;52.20;;;;;;221963;1268;22551;-48
2024/01/04 13:19:54;;;;;;;1.30;0.70;;;23.00;52.00;;;;;;221652;1265;22519;-48
2024/01/04 13:24:59;;;;;;;1.60;0.70;;;22.70;52.10;;;;;;221883;1267;22881;-48
2024/01/04 13:30:04;;;;;;;0.40;0.40;;;22.70;52.00;;;;;;222132;1259;24234;-50
2024/01/04 13:35:09;;;;;;;0.40;0.40;;;22.80;51.50;;;;;;222185;1263;22622;-48
2024/01/04 13:40:13;;;;;;;0.50;0.40;;;22.90;51.50;;;;;;221870;1270;22650;-49
2024/01/04 13:45:18;;;;;;;0.40;0.30;;;22.90;51.30;;;;;;222280;1268;22637;-50
2024/01/04 13:50:23;;;;;;;0.70;0.50;;;23.00;51.40;;;;;;221986;1269;22642;-52
2024/01/04 13:55:27;;;;;;;0.70;0.40;;;23.00;51.00;;;;;;222011;1269;23145;-51
2024/01/04 14:00:33;;;;;;;0.70;0.60;;;23.00;50.80;;;;;;221868;1269;24409;-48
2024/01/04 14:05:38;;;;;;;0.40;0.40;;;23.00;50.80;;;;;;221889;1261;22674;-50
2024/01/04 14:10:54;;;;;;;0.90;0.80;;;23.00;51.70;;;;;;222294;1266;22613;-50
2024/01/04 14:15:57;;;;;;;0.70;0.70;;;22.90;51.80;;;;;;222046;1269;24096;-48
2024/01/04 14:21:02;;;;;;;0.70;0.70;;;22.80;51.80;;;;;;222029;1264;24216;-50
2024/01/04 14:26:07;;;;;;;0.50;0.50;;;22.80;51.80;;;;;;221830;1266;22524;-50
2024/01/04 14:31:11;;;;;;;0.50;0.50;;;22.70;52.20;;;;;;222162;1266;22533;-49
2024/01/04 14:36:15;;;;;;;0.50;0.50;;;22.70;52.10;;;;;;222511;1267;24499;-52
2024/01/04 14:41:20;;;;;;;0.50;0.50;;;22.70;51.50;;;;;;221753;1267;24246;-48
2024/01/04 14:46:28;;;;;;;0.60;0.60;;;22.70;51.50;;;;;;222107;1266;22891;-51
2024/01/04 14:51:33;;;;;;;0.70;0.70;;;22.70;50.50;;;;;;222272;1263;25391;-51
2024/01/04 14:56:37;;;;;;;0.70;0.60;;;22.80;50.60;;;;;;221900;1269;24327;-48
2024/01/04 15:01:42;;;;;;;0.70;0.60;;;22.80;51.00;;;;;;221905;1269;24241;-49
2024/01/04 15:06:46;;;;;;;0.70;0.60;;;22.80;50.60;;;;;;222012;1253;23953;-47
2024/01/04 15:11:51;;;;;;;0.80;0.80;;;22.90;50.20;;;;;;222040;1267;24244;-50
2024/01/04 15:16:55;;;;;;;0.60;0.60;;;22.90;50.20;;;;;;222189;1248;24796;-53
2024/01/04 15:21:59;;;;;;;0.80;0.50;;;22.90;49.90;;;;;;221986;1263;25328;-50
2024/01/04 15:27:04;;;;;;;0.50;0.50;;;23.00;49.60;;;;;;222155;1258;24236;-50
2024/01/04 15:32:11;;;;;;;0.50;0.50;;;23.00;50.60;;;;;;222197;1269;22531;-47
2024/01/04 15:37:16;;;;;;;0.60;0.60;;;22.90;50.60;;;;;;222129;1269;23155;-52
2024/01/04 15:42:20;;;;;;;0.70;0.60;;;22.90;50.70;;;;;;221768;1263;24228;-51
2024/01/04 15:47:24;;;;;;;0.50;0.50;;;22.80;50.80;;;;;;221783;1253;22546;-50
2024/01/04 15:52:29;;;;;;;0.60;0.60;;;22.80;50.30;;;;;;221783;1264;22938;-52
2024/01/04 15:57:33;;;;;;;1.00;0.50;;;22.80;49.50;;;;;;221915;1269;24195;-49
2024/01/04 16:02:37;;;;;;;0.40;0.40;;;22.90;49.30;;;;;;222127;1260;22656;-51
2024/01/04 16:07:42;;;;;;;3.00;1.20;;;22.70;49.50;;;;;;222079;1267;25467;-51
2024/01/04 16:12:47;;;;;;;1.60;0.80;;;22.90;49.10;;;;;;222640;1267;23265;-50
2024/01/04 16:17:51;;;;;;;0.90;0.70;;;23.00;49.00;;;;;;222080;1264;22520;-46
2024/01/04 16:22:55;;;;;;;1.30;1.10;;;23.10;48.60;;;;;;222413;1268;22484;-50
2024/01/04 16:28:00;;;;;;;4.00;1.80;;;23.10;49.20;;;;;;221810;1269;24206;-49
2024/01/04 16:33:06;;;;;;;1.20;0.90;;;23.00;49.30;;;;;;222240;1260;26561;-50
2024/01/04 16:38:12;;;;;;;1.10;1.00;;;22.90;48.30;;;;;;222047;1267;24197;-50
2024/01/04 16:43:16;;;;;;;1.10;1.00;;;22.80;48.60;;;;;;221868;1262;25584;-48
2024/01/04 16:48:21;;;;;;;2.00;1.00;;;22.70;49.70;;;;;;221751;1264;24245;-49
2024/01/04 16:53:26;;;;;;;2.10;1.40;;;22.80;49.40;;;;;;221783;1269;24210;-50
2024/01/04 16:58:30;;;;;;;1.40;0.90;;;22.80;49.60;;;;;;221829;1262;22639;-49
2024/01/04 17:03:34;;;;;;;4.90;1.20;;;22.90;48.60;;;;;;222015;1268;22520;-49
2024/01/04 17:08:38;;;;;;;2.00;1.00;;;23.10;48.80;;;;;;222463;1268;22966;-50
2024/01/04 17:13:43;;;;;;;1.40;1.00;;;23.10;48.80;;;;;;222472;1268;24251;-50
2024/01/04 17:18:47;;;;;;;6.40;0.90;;;23.10;49.00;;;;;;222019;1262;22533;-48
2024/01/04 17:23:52;;;;;;;0.90;0.90;;;23.00;49.00;;;;;;221753;1268;22573;-49
2024/01/04 17:28:56;;;;;;;2.30;1.20;;;23.00;49.00;;;;;;221726;1247;22815;-46
2024/01/04 17:34:00;;;;;;;0.70;0.70;;;22.90;48.80;;;;;;224183;1267;23171;-48
2024/01/04 17:39:05;;;;;;;0.70;0.70;;;22.80;48.90;;;;;;222102;1268;24193;-48
2024/01/04 17:44:10;;;;;;;2.20;1.20;;;22.70;49.20;;;;;;221773;1267;192557;-50
2024/01/04 17:49:14;;;;;;;1.40;1.10;;;22.70;48.90;;;;;;221998;1266;24231;-52
2024/01/04 17:54:18;;;;;;;1.40;1.00;;;22.60;49.00;;;;;;222305;1266;24206;-47
2024/01/04 17:59:23;;;;;;;1.40;0.80;;;22.50;49.20;;;;;;222586;1267;22517;-50
2024/01/04 18:04:28;;;;;;;1.00;0.80;;;22.50;49.40;;;;;;222562;1265;23927;-52
2024/01/04 18:09:32;;;;;;;0.90;0.80;;;22.50;49.30;;;;;;222162;1268;22537;-49
2024/01/04 18:14:46;;;;;;;1.30;1.00;;;22.50;49.00;;;;;;222244;1262;25502;-50
2024/01/04 18:19:51;;;;;;;1.80;0.80;;;22.50;48.90;;;;;;221830;1248;24259;-48
2024/01/04 18:24:55;;;;;;;0.70;0.70;;;22.50;48.90;;;;;;221877;1267;24533;-47
2024/01/04 18:30:03;;;;;;;0.80;0.80;;;22.40;48.90;;;;;;222073;1267;24262;-52
2024/01/04 18:35:08;;;;;;;0.60;0.60;;;22.40;49.20;;;;;;222248;1263;22530;-52
2024/01/04 18:40:13;;;;;;;1.00;0.80;;;22.50;49.50;;;;;;222648;1265;22517;-49
2024/01/04 18:45:17;;;;;;;1.20;0.70;;;22.60;49.30;;;;;;222075;1257;22645;-52
2024/01/04 18:50:21;;;;;;;0.70;0.70;;;22.70;48.80;;;;;;222063;1268;24371;-49
2024/01/04 18:55:28;;;;;;;0.80;0.80;;;22.70;48.60;;;;;;222119;1263;24674;-47
2024/01/04 19:00:32;;;;;;;0.80;0.70;;;22.80;48.60;;;;;;222244;1268;24180;-51
2024/01/04 19:05:37;;;;;;;0.70;0.70;;;22.70;48.60;;;;;;221967;1269;24205;-50
2024/01/04 19:10:44;;;;;;;0.40;0.40;;;22.70;48.60;;;;;;221928;1260;25288;-49
2024/01/04 19:15:51;;;;;;;0.80;0.80;;;22.60;48.50;;;;;;222087;1267;24431;-48
2024/01/04 19:21:04;;;;;;;1.20;1.10;;;22.50;48.40;;;;;;221953;1262;25331;-48
2024/01/04 19:26:09;;;;;;;1.20;1.10;;;22.50;48.40;;;;;;222028;1267;22568;-50
2024/01/04 19:31:13;;;;;;;1.10;0.90;;;22.50;48.40;;;;;;222115;1263;22519;-48
2024/01/04 19:36:21;;;;;;;1.10;0.90;;;22.50;48.20;;;;;;222166;1266;25288;-47
2024/01/04 19:41:25;;;;;;;1.50;0.90;;;22.40;48.50;;;;;;222240;1268;25364;-47
2024/01/04 19:46:30;;;;;;;1.50;1.30;;;22.40;48.50;;;;;;222277;1265;22646;-47
2024/01/04 19:51:34;;;;;;;0.70;0.70;;;22.50;48.50;;;;;;222421;1268;25206;-50
2024/01/04 19:56:39;;;;;;;0.60;0.60;;;22.50;48.30;;;;;;222270;1249;24199;-50
2024/01/04 20:01:44;;;;;;;0.90;0.80;;;22.50;48.10;;;;;;221863;1268;22524;-51
2024/01/04 20:06:49;;;;;;;2.20;1.30;;;22.30;48.30;;;;;;222215;1265;22632;-48
2024/01/04 20:11:56;;;;;;;1.60;1.10;;;22.40;48.30;;;;;;221910;1269;24196;-50
2024/01/04 20:17:00;;;;;;;1.20;1.00;;;22.40;48.00;;;;;;221831;1268;24186;-51
2024/01/04 20:22:05;;;;;;;1.10;1.00;;;22.40;48.00;;;;;;221812;1263;22572;-51
2024/01/04 20:27:11;;;;;;;0.70;0.70;;;22.50;48.00;;;;;;222144;1268;22622;-49
2024/01/04 20:32:16;;;;;;;1.10;0.90;;;22.50;48.30;;;;;;222157;1268;22631;-48
2024/01/04 20:37:21;;;;;;;0.80;0.80;;;22.60;47.80;;;;;;222105;1267;25398;-49
2024/01/04 20:42:25;;;;;;;4.70;0.90;;;22.60;47.90;;;;;;222069;1262;22520;-50
2024/01/04 20:47:29;;;;;;;1.00;0.70;;;22.60;48.30;;;;;;222039;1258;22662;-51
2024/01/04 20:52:35;;;;;;;0.60;0.60;;;22.60;48.10;;;;;;222262;1267;26610;-49
2024/01/04 20:57:39;;;;;;;0.60;0.60;;;22.60;48.20;;;;;;222130;1268;22647;-51
2024/01/04 21:02:43;;;;;;;3.00;1.40;;;22.60;48.60;;;;;;222172;1268;23497;-48
2024/01/04 21:07:50;;;;;;;0.90;0.80;;;22.50;48.10;;;;;;221691;1259;23850;-46
2024/01/04 21:12:57;;;;;;;1.10;0.80;;;22.40;47.90;;;;;;221921;1262;25335;-47
2024/01/04 21:18:05;;;;;;;6.20;1.20;;;22.40;49.50;;;;;;222938;1267;24442;-48
2024/01/04 21:23:11;;;;;;;7.50;2.20;;;22.40;48.80;;;;;;222057;1269;22520;-51
2024/01/04 21:28:17;;;;;;;10.30;1.40;;;22.70;49.30;;;;;;221573;1256;22517;-52
2024/01/04 21:33:21;;;;;;;3.40;1.60;;;22.60;49.20;;;;;;222408;1267;24080;-50
2024/01/04 21:38:28;;;;;;;3.40;1.30;;;22.50;49.40;;;;;;222019;1265;25487;-49
2024/01/04 21:43:32;;;;;;;1.70;0.90;;;22.60;49.90;;;;;;221657;1265;25418;-50
2024/01/04 21:48:39;;;;;;;7.40;1.20;;;22.60;50.30;;;;;;221825;1268;24207;-51
2024/01/04 21:53:47;;;;;;;2.70;1.50;;;22.60;50.10;;;;;;222135;1256;22791;-50
2024/01/04 21:58:53;;;;;;;3.40;1.10;;;22.80;50.00;;;;;;221734;1268;22535;-48
2024/01/04 22:03:57;;;;;;;1.20;0.90;;;22.80;49.90;;;;;;221792;1266;24226;-50
2024/01/04 22:09:05;;;;;;;3.90;1.20;;;22.90;49.90;;;;;;221854;1262;22524;-53
2024/01/04 22:14:09;;;;;;;13.00;1.30;;;22.80;50.00;;;;;;221844;1269;22531;-52
2024/01/04 22:19:14;;;;;;;3.00;1.10;;;22.70;49.40;;;;;;221784;1264;22878;-50
2024/01/04 22:24:20;;;;;;;1.50;1.10;;;22.60;50.40;;;;;;221940;1267;24835;-51
2024/01/04 22:29:24;;;;;;;2.80;1.60;;;22.60;50.20;;;;;;221783;1256;22557;-49
2024/01/04 22:34:29;;;;;;;3.00;1.20;;;22.50;50.30;;;;;;221874;1263;22651;-51
2024/01/04 22:39:33;;;;;;;2.20;1.00;;;22.50;50.80;;;;;;221921;1262;22539;-49
2024/01/04 22:44:38;;;;;;;1.70;0.70;;;22.50;50.80;;;;;;221983;1263;23877;-50
2024/01/04 22:49:44;;;;;;;3.40;1.20;;;22.60;50.80;;;;;;222040;1266;22879;-50
2024/01/04 22:54:51;;;;;;;2.60;1.00;;;22.60;50.30;;;;;;222376;1265;25406;-52
2024/01/04 23:00:00;;;;;;;1.50;0.70;;;22.70;50.10;;;;;;222115;1262;24068;-50
2024/01/04 23:05:08;;;;;;;0.90;0.80;;;22.70;49.80;;;;;;222416;1262;22638;-51
2024/01/04 23:10:13;;;;;;;1.60;1.10;;;22.80;50.00;;;;;;221983;1262;25413;-49
2024/01/04 23:15:19;;;;;;;2.10;0.90;;;22.80;49.60;;;;;;222168;1262;25431;-51
2024/01/04 23:20:25;;;;;;;1.80;1.20;;;22.80;49.50;;;;;;222151;1263;25458;-51
2024/01/04 23:25:30;;;;;;;1.90;1.00;;;22.80;49.50;;;;;;221898;1266;25266;-47
2024/01/04 23:30:34;;;;;;;1.00;1.00;;;22.80;49.50;;;;;;221893;1264;22528;-48
2024/01/04 23:35:39;;;;;;;2.20;1.50;;;22.80;49.80;;;;;;221917;1256;22544;-48
2024/01/04 23:40:43;;;;;;;1.80;1.10;;;22.70;49.80;;;;;;222270;1264;22519;-48
2024/01/04 23:45:48;;;;;;;1.70;1.10;;;22.70;49.30;;;;;;222202;1267;25290;-49
2024/01/04 23:50:52;;;;;;;0.90;0.90;;;22.60;49.30;;;;;;222112;1262;25238;-50
2024/01/04 23:55:56;;;;;;;1.00;0.80;;;22.60;49.30;;;;;;222390;1249;22937;-49
